Time;durP1;ratioP1;P1;durP2;ratioP2;P2;SDS_P1;SDS_P2;PMS_P1;PMS_P2;Temp;Humidity;BMP_temperature;BMP_pressure;BME280_temperature;BME280_humidity;BME280_pressure;Samples;Min_cycle;Max_cycle;Signal;HPM_P1;HPM_P2
2022/02/13 00:01:10;;;;;;;12.65;6.55;;;3.30;61.60;;;;;;5136238;27;20019;-75
2022/02/13 00:03:36;;;;;;;13.70;6.93;;;3.20;61.90;;;;;;5136039;27;20024;-78
2022/02/13 00:06:02;;;;;;;15.55;7.20;;;3.10;62.20;;;;;;5135979;27;20027;-74
2022/02/13 00:08:28;;;;;;;18.30;7.32;;;3.10;62.60;;;;;;5135890;27;20073;-74
2022/02/13 00:10:53;;;;;;;14.52;8.05;;;3.00;62.80;;;;;;5135725;27;20035;-74
2022/02/13 00:13:19;;;;;;;14.07;6.30;;;3.00;62.90;;;;;;5135025;27;20094;-74
2022/02/13 00:15:45;;;;;;;16.77;7.57;;;3.10;63.00;;;;;;5135676;27;20511;-74
2022/02/13 00:18:10;;;;;;;15.93;6.63;;;3.00;62.90;;;;;;5135781;27;20019;-74
2022/02/13 00:20:36;;;;;;;14.68;6.35;;;3.00;63.00;;;;;;5117305;27;20424;-73
2022/02/13 00:23:01;;;;;;;12.70;6.00;;;3.10;63.00;;;;;;5135647;27;20016;-74
2022/02/13 00:25:28;;;;;;;11.00;6.25;;;3.00;63.00;;;;;;5117246;27;20065;-74
2022/02/13 00:27:53;;;;;;;13.05;6.35;;;2.90;63.30;;;;;;5135510;27;20027;-73
2022/02/13 00:30:19;;;;;;;14.35;5.07;;;2.90;64.70;;;;;;5135419;27;20039;-74
2022/02/13 00:32:45;;;;;;;14.23;6.43;;;2.80;63.90;;;;;;5135351;27;20015;-75
2022/02/13 00:35:12;;;;;;;13.77;6.65;;;2.90;64.10;;;;;;5135519;27;20118;-75
2022/02/13 00:37:38;;;;;;;12.02;5.60;;;2.80;64.10;;;;;;5135408;27;20073;-74
2022/02/13 00:40:04;;;;;;;12.70;5.55;;;2.80;64.10;;;;;;5135291;27;20062;-75
2022/02/13 00:42:30;;;;;;;14.25;6.20;;;2.80;64.20;;;;;;5116918;27;20368;-74
2022/02/13 00:44:55;;;;;;;17.10;6.18;;;2.80;64.60;;;;;;5135210;27;20047;-75
2022/02/13 00:47:21;;;;;;;11.75;5.53;;;2.70;65.00;;;;;;5135249;27;20030;-75
2022/02/13 00:49:46;;;;;;;15.98;6.05;;;2.70;65.60;;;;;;5135064;27;20487;-76
2022/02/13 00:52:12;;;;;;;12.20;5.63;;;2.70;65.80;;;;;;5135086;27;20023;-75
2022/02/13 00:54:38;;;;;;;12.35;5.85;;;2.70;65.60;;;;;;5135089;27;20379;-74
2022/02/13 00:57:04;;;;;;;12.38;5.57;;;2.70;65.60;;;;;;5134965;27;20020;-74
2022/02/13 00:59:30;;;;;;;9.50;5.22;;;2.80;65.60;;;;;;5116563;27;20034;-74
2022/02/13 01:01:55;;;;;;;10.82;5.93;;;2.70;65.60;;;;;;5134876;27;20091;-75
2022/02/13 01:04:21;;;;;;;10.55;4.85;;;2.70;65.80;;;;;;5134789;27;20027;-74
2022/02/13 01:06:47;;;;;;;13.30;5.75;;;2.70;65.80;;;;;;5134579;27;20508;-75
2022/02/13 01:09:12;;;;;;;13.10;5.55;;;2.70;65.70;;;;;;5134504;27;20035;-74
2022/02/13 01:11:38;;;;;;;13.15;5.63;;;2.80;65.80;;;;;;5134707;27;20020;-74
2022/02/13 01:14:04;;;;;;;12.88;5.85;;;2.70;65.80;;;;;;5134410;27;20027;-75
2022/02/13 01:16:30;;;;;;;10.70;6.00;;;2.70;65.90;;;;;;5134648;27;20061;-75
2022/02/13 01:18:56;;;;;;;11.57;5.18;;;2.70;66.20;;;;;;5134560;27;20050;-74
2022/02/13 01:21:22;;;;;;;11.07;6.38;;;2.70;67.30;;;;;;5116178;27;20027;-74
2022/02/13 01:23:48;;;;;;;13.27;6.10;;;2.50;66.70;;;;;;5134257;27;20023;-75
2022/02/13 01:26:15;;;;;;;10.07;5.03;;;2.50;66.90;;;;;;5134431;27;20024;-74
2022/02/13 01:28:41;;;;;;;14.02;6.25;;;2.50;67.20;;;;;;5134353;27;20023;-74
2022/02/13 01:31:08;;;;;;;11.93;5.00;;;2.50;67.60;;;;;;5134336;27;20031;-74
2022/02/13 01:33:34;;;;;;;13.65;5.68;;;2.50;67.80;;;;;;5134328;27;20030;-76
2022/02/13 01:36:01;;;;;;;10.38;4.80;;;2.40;68.00;;;;;;5134306;27;20034;-74
2022/02/13 01:38:27;;;;;;;11.35;5.03;;;2.40;68.20;;;;;;5115935;27;20023;-74
2022/02/13 01:40:53;;;;;;;8.25;5.00;;;2.40;68.30;;;;;;5134162;27;20019;-73
2022/02/13 01:43:19;;;;;;;8.55;4.45;;;2.40;68.20;;;;;;5134281;27;20051;-74
2022/02/13 01:45:45;;;;;;;7.70;4.50;;;2.40;68.30;;;;;;5134188;27;20058;-74
2022/02/13 01:48:12;;;;;;;9.80;4.82;;;2.40;68.20;;;;;;5134142;27;20023;-74
2022/02/13 01:50:39;;;;;;;10.70;4.88;;;2.40;68.20;;;;;;5134129;27;20035;-74
2022/02/13 01:53:05;;;;;;;10.43;4.43;;;2.40;68.20;;;;;;5134037;27;20050;-75
2022/02/13 01:55:31;;;;;;;11.10;4.72;;;2.50;68.10;;;;;;5134118;27;20105;-74
2022/02/13 01:57:57;;;;;;;9.95;5.18;;;2.40;68.10;;;;;;5134005;27;20051;-74
2022/02/13 02:00:23;;;;;;;9.32;4.88;;;2.40;68.20;;;;;;5133999;27;20023;-75
2022/02/13 02:02:49;;;;;;;10.75;4.45;;;2.40;68.40;;;;;;5133900;27;20486;-74
2022/02/13 02:05:14;;;;;;;9.90;4.20;;;2.40;68.50;;;;;;5133962;27;20065;-74
2022/02/13 02:07:40;;;;;;;6.72;4.05;;;2.40;68.60;;;;;;5133895;27;20015;-73
2022/02/13 02:10:06;;;;;;;7.45;3.92;;;2.50;68.30;;;;;;5133756;27;20403;-75
2022/02/13 02:12:32;;;;;;;8.40;4.32;;;2.50;68.20;;;;;;5133930;27;20561;-74
2022/02/13 02:14:57;;;;;;;8.45;4.22;;;2.60;67.90;;;;;;5133638;27;20046;-75
2022/02/13 02:17:23;;;;;;;9.15;4.22;;;2.60;67.60;;;;;;5133879;27;20475;-75
2022/02/13 02:19:49;;;;;;;13.63;4.47;;;2.60;67.40;;;;;;5133743;27;20023;-74
2022/02/13 02:22:16;;;;;;;8.10;4.18;;;2.70;67.30;;;;;;5133843;27;20031;-74
2022/02/13 02:24:41;;;;;;;6.38;4.28;;;2.70;66.80;;;;;;5133791;27;20026;-73
2022/02/13 02:27:07;;;;;;;10.65;4.20;;;2.70;66.70;;;;;;5133805;27;20110;-73
2022/02/13 02:29:33;;;;;;;7.32;3.92;;;2.70;66.60;;;;;;5115190;28;20031;-73
2022/02/13 02:31:59;;;;;;;6.47;4.20;;;2.70;66.60;;;;;;5133720;27;20019;-73
2022/02/13 02:34:25;;;;;;;6.70;3.78;;;2.70;66.60;;;;;;5133683;27;20015;-73
2022/02/13 02:36:50;;;;;;;8.88;5.03;;;2.70;66.70;;;;;;5137401;27;20035;-73
2022/02/13 02:39:16;;;;;;;11.60;4.40;;;2.70;66.70;;;;;;5137730;27;20031;-73
2022/02/13 02:41:41;;;;;;;11.57;4.95;;;2.60;66.90;;;;;;5137583;27;20058;-73
2022/02/13 02:44:07;;;;;;;9.70;4.40;;;2.70;66.90;;;;;;5137641;27;20030;-73
2022/02/13 02:46:33;;;;;;;9.93;4.00;;;2.70;66.70;;;;;;5119127;27;20024;-74
2022/02/13 02:48:58;;;;;;;8.50;3.72;;;2.70;66.80;;;;;;5137366;27;20066;-74
2022/02/13 02:51:24;;;;;;;7.22;4.30;;;2.70;66.60;;;;;;5137434;27;20114;-74
2022/02/13 02:53:50;;;;;;;6.47;4.13;;;2.70;66.70;;;;;;5137495;27;20024;-74
2022/02/13 02:56:16;;;;;;;10.75;4.70;;;2.70;66.80;;;;;;5137359;27;20019;-74
2022/02/13 02:58:42;;;;;;;9.57;4.68;;;2.70;67.00;;;;;;5137380;27;20156;-75
2022/02/13 03:01:07;;;;;;;10.75;4.70;;;2.70;66.90;;;;;;5137260;27;20527;-74
2022/02/13 03:03:33;;;;;;;7.60;4.40;;;2.60;66.80;;;;;;5118852;27;20031;-74
2022/02/13 03:06:00;;;;;;;9.48;4.93;;;2.60;67.00;;;;;;5137125;27;20482;-74
2022/02/13 03:08:25;;;;;;;8.30;4.38;;;2.60;67.10;;;;;;5137127;27;20039;-74
2022/02/13 03:10:52;;;;;;;10.13;4.70;;;2.70;66.90;;;;;;5137066;27;20356;-74
2022/02/13 03:13:20;;;;;;;7.97;4.18;;;2.70;66.80;;;;;;5136996;27;20015;-74
2022/02/13 03:15:47;;;;;;;9.07;4.57;;;2.70;66.70;;;;;;5136796;27;20039;-73
2022/02/13 03:18:14;;;;;;;9.05;4.25;;;2.70;66.80;;;;;;5136925;27;20019;-74
2022/02/13 03:20:39;;;;;;;9.82;4.20;;;2.70;66.80;;;;;;5136942;27;20091;-73
2022/02/13 03:23:05;;;;;;;11.45;4.90;;;2.70;67.00;;;;;;5136787;27;20459;-73
2022/02/13 03:25:31;;;;;;;9.93;4.50;;;2.60;66.90;;;;;;5136812;27;20073;-73
2022/02/13 03:27:57;;;;;;;10.45;4.30;;;2.60;66.90;;;;;;5136681;27;20019;-73
2022/02/13 03:30:23;;;;;;;11.35;4.28;;;2.60;67.10;;;;;;5118230;27;20407;-73
2022/02/13 03:32:48;;;;;;;9.02;4.57;;;2.60;67.10;;;;;;5136589;27;20019;-73
2022/02/13 03:35:14;;;;;;;9.57;4.68;;;2.60;67.10;;;;;;5136675;27;20485;-73
2022/02/13 03:37:42;;;;;;;10.40;4.57;;;2.60;67.20;;;;;;5136528;27;20020;-73
2022/02/13 03:40:09;;;;;;;11.02;4.97;;;2.60;67.30;;;;;;5136567;27;20064;-73
2022/02/13 03:42:35;;;;;;;8.65;4.25;;;2.60;67.30;;;;;;5136334;27;20027;-74
2022/02/13 03:45:01;;;;;;;11.98;4.55;;;2.60;67.40;;;;;;5136499;27;20019;-74
2022/02/13 03:47:27;;;;;;;8.70;3.90;;;2.50;67.60;;;;;;5136376;27;20031;-74
2022/02/13 03:49:53;;;;;;;8.63;4.95;;;2.50;67.80;;;;;;5136220;27;20031;-74
2022/02/13 03:52:18;;;;;;;10.50;4.50;;;2.50;67.90;;;;;;5136266;27;20490;-74
2022/02/13 03:54:44;;;;;;;9.15;4.40;;;2.40;68.20;;;;;;5136281;27;20019;-74
2022/02/13 03:57:09;;;;;;;7.63;4.13;;;2.50;68.30;;;;;;5136243;27;20018;-73
2022/02/13 03:59:35;;;;;;;11.63;4.07;;;2.50;68.30;;;;;;5136094;27;20073;-74
2022/02/13 04:02:00;;;;;;;10.10;4.50;;;2.50;68.30;;;;;;5136002;27;20034;-74
2022/02/13 04:04:26;;;;;;;9.13;4.60;;;2.50;68.30;;;;;;5117627;27;20110;-73
2022/02/13 04:06:52;;;;;;;7.80;4.38;;;2.50;68.40;;;;;;5135896;27;20459;-73
2022/02/13 04:09:17;;;;;;;11.98;4.45;;;2.40;68.30;;;;;;5135889;27;20433;-73
2022/02/13 04:11:43;;;;;;;8.32;4.30;;;2.50;68.50;;;;;;5135888;27;20394;-73
2022/02/13 04:14:08;;;;;;;7.93;4.00;;;2.50;68.50;;;;;;5135820;27;20531;-74
2022/02/13 04:16:34;;;;;;;13.32;4.82;;;2.50;68.20;;;;;;5135772;27;20034;-73
2022/02/13 04:19:00;;;;;;;7.13;4.20;;;2.60;67.90;;;;;;5135828;27;20023;-73
2022/02/13 04:21:25;;;;;;;8.13;3.50;;;2.50;67.80;;;;;;5135808;27;20023;-73
2022/02/13 04:23:51;;;;;;;8.73;3.97;;;2.60;67.70;;;;;;5135748;27;20370;-74
2022/02/13 04:26:17;;;;;;;10.60;4.30;;;2.60;67.70;;;;;;5135554;27;20555;-74
2022/02/13 04:28:43;;;;;;;9.82;4.35;;;2.60;67.60;;;;;;5135485;27;20031;-73
2022/02/13 04:31:08;;;;;;;8.85;3.97;;;2.60;67.50;;;;;;5135492;27;20385;-73
2022/02/13 04:33:34;;;;;;;10.30;4.50;;;2.60;67.60;;;;;;5135504;27;20379;-73
2022/02/13 04:36:00;;;;;;;8.68;4.50;;;2.60;67.80;;;;;;5135431;27;20023;-73
2022/02/13 04:38:25;;;;;;;6.18;3.67;;;2.60;68.00;;;;;;5135445;27;20050;-73
2022/02/13 04:40:51;;;;;;;8.15;3.97;;;2.60;67.90;;;;;;5135184;27;20062;-74
2022/02/13 04:43:16;;;;;;;10.13;4.15;;;2.50;68.00;;;;;;5135325;27;20027;-73
2022/02/13 04:45:42;;;;;;;5.35;3.80;;;2.50;68.20;;;;;;5135489;27;20034;-73
2022/02/13 04:48:07;;;;;;;11.45;5.00;;;2.40;68.20;;;;;;5135230;27;20471;-73
2022/02/13 04:50:34;;;;;;;10.30;3.97;;;2.50;68.40;;;;;;5135141;27;20058;-74
2022/02/13 04:52:59;;;;;;;11.57;5.00;;;2.40;68.40;;;;;;5135071;27;20364;-73
2022/02/13 04:55:25;;;;;;;10.48;4.78;;;2.40;68.60;;;;;;5135075;27;20026;-73
2022/02/13 04:57:51;;;;;;;10.23;4.75;;;2.40;68.60;;;;;;5134421;27;20028;-73
2022/02/13 05:00:18;;;;;;;12.35;4.50;;;2.40;68.50;;;;;;5135017;27;20031;-73
2022/02/13 05:02:45;;;;;;;10.85;4.22;;;2.30;68.50;;;;;;5134946;27;20027;-74
2022/02/13 05:05:11;;;;;;;7.25;4.13;;;2.30;68.60;;;;;;5134914;27;20019;-74
2022/02/13 05:07:37;;;;;;;8.52;4.90;;;2.30;68.70;;;;;;5116478;27;20019;-74
2022/02/13 05:10:04;;;;;;;8.50;4.70;;;2.30;68.80;;;;;;5134643;27;20047;-74
2022/02/13 05:12:29;;;;;;;11.25;4.95;;;2.30;68.80;;;;;;5134652;27;20019;-73
2022/02/13 05:14:55;;;;;;;8.20;5.13;;;2.20;68.90;;;;;;5134474;27;20134;-74
2022/02/13 05:17:21;;;;;;;10.00;5.32;;;2.20;69.10;;;;;;5134636;27;20048;-74
2022/02/13 05:19:48;;;;;;;11.73;4.82;;;2.20;69.10;;;;;;5134571;27;20098;-74
2022/02/13 05:22:14;;;;;;;9.80;5.35;;;2.20;69.10;;;;;;5134555;27;20027;-74
2022/02/13 05:24:40;;;;;;;9.65;5.05;;;2.20;69.30;;;;;;5134487;27;20048;-74
2022/02/13 05:27:06;;;;;;;12.27;5.85;;;2.30;69.50;;;;;;5134446;27;20590;-74
2022/02/13 05:29:35;;;;;;;12.18;6.13;;;2.30;69.50;;;;;;5134376;27;20031;-75
2022/02/13 05:32:03;;;;;;;11.27;5.28;;;2.30;69.20;;;;;;5134440;27;20015;-74
2022/02/13 05:34:30;;;;;;;11.80;5.70;;;2.30;69.30;;;;;;5134342;27;20452;-74
2022/02/13 05:36:56;;;;;;;12.45;5.38;;;2.30;69.50;;;;;;5134319;27;20475;-74
2022/02/13 05:39:21;;;;;;;9.50;5.05;;;2.30;69.60;;;;;;5134314;27;20028;-74
2022/02/13 05:41:47;;;;;;;8.52;5.00;;;2.30;69.60;;;;;;5134211;27;20076;-74
2022/02/13 05:44:13;;;;;;;9.27;4.78;;;2.30;69.70;;;;;;5134293;27;20027;-75
2022/02/13 05:46:38;;;;;;;11.25;5.03;;;2.30;69.90;;;;;;5134203;27;20027;-75
2022/02/13 05:49:04;;;;;;;11.52;4.88;;;2.30;69.80;;;;;;5115683;27;20031;-75
2022/02/13 05:51:30;;;;;;;12.93;5.68;;;2.30;69.90;;;;;;5134214;27;20094;-75
2022/02/13 05:53:56;;;;;;;14.75;5.32;;;2.30;70.00;;;;;;5134083;27;20031;-75
2022/02/13 05:56:24;;;;;;;11.80;5.75;;;2.40;70.10;;;;;;5134025;27;20011;-74
2022/02/13 05:58:50;;;;;;;9.20;5.72;;;2.40;69.80;;;;;;5134066;27;20030;-74
2022/02/13 06:01:16;;;;;;;12.70;5.47;;;2.40;69.90;;;;;;5133928;27;20019;-74
2022/02/13 06:03:42;;;;;;;11.38;5.68;;;2.30;70.10;;;;;;5133896;27;20063;-75
2022/02/13 06:06:07;;;;;;;11.48;6.05;;;2.30;70.20;;;;;;5133965;27;20029;-74
2022/02/13 06:08:33;;;;;;;15.80;5.68;;;2.40;70.20;;;;;;5133914;27;20075;-74
2022/02/13 06:10:58;;;;;;;8.82;5.60;;;2.50;71.00;;;;;;5136401;27;20035;-74
2022/02/13 06:13:24;;;;;;;12.52;6.10;;;2.50;69.90;;;;;;5138199;27;20019;-74
2022/02/13 06:15:50;;;;;;;11.85;6.40;;;2.50;70.10;;;;;;5138037;27;20062;-74
2022/02/13 06:18:16;;;;;;;16.30;6.28;;;2.50;70.20;;;;;;5138166;27;20036;-74
2022/02/13 06:20:41;;;;;;;7.88;5.43;;;2.50;70.40;;;;;;5138103;27;20031;-75
2022/02/13 06:23:10;;;;;;;16.17;7.15;;;2.50;70.60;;;;;;5138128;27;20027;-75
2022/02/13 06:25:37;;;;;;;11.73;6.10;;;2.50;70.60;;;;;;5119589;27;20033;-75
2022/02/13 06:28:03;;;;;;;11.88;6.38;;;2.50;70.80;;;;;;5138201;27;20015;-76
2022/02/13 06:30:29;;;;;;;11.02;6.20;;;2.50;70.90;;;;;;5137792;27;20031;-74
2022/02/13 06:32:57;;;;;;;15.27;6.43;;;2.60;70.80;;;;;;5137848;27;20470;-74
2022/02/13 06:35:24;;;;;;;14.45;5.88;;;2.60;70.50;;;;;;5137894;27;20453;-74
2022/02/13 06:37:50;;;;;;;18.83;6.80;;;2.60;70.40;;;;;;5137728;27;20102;-73
2022/02/13 06:40:15;;;;;;;11.63;5.60;;;2.60;70.40;;;;;;5137744;27;20046;-73
2022/02/13 06:42:41;;;;;;;13.90;6.80;;;2.60;70.50;;;;;;5137677;27;20027;-73
2022/02/13 06:45:07;;;;;;;16.88;6.72;;;2.70;70.70;;;;;;5137840;27;20030;-74
2022/02/13 06:47:32;;;;;;;11.80;6.63;;;2.70;70.80;;;;;;5137607;27;20028;-74
2022/02/13 06:49:58;;;;;;;11.88;6.80;;;2.60;70.80;;;;;;5119058;27;20035;-74
2022/02/13 06:52:23;;;;;;;16.77;6.78;;;2.70;71.00;;;;;;5137505;27;20094;-73
2022/02/13 06:54:49;;;;;;;16.40;6.85;;;2.60;71.00;;;;;;5137427;27;20449;-73
2022/02/13 06:57:14;;;;;;;14.02;7.13;;;2.70;71.00;;;;;;5137414;27;20019;-74
2022/02/13 06:59:41;;;;;;;17.35;6.65;;;2.70;71.00;;;;;;5137235;27;20035;-74
2022/02/13 07:02:10;;;;;;;17.52;7.80;;;2.70;71.00;;;;;;5137292;27;20034;-74
2022/02/13 07:04:36;;;;;;;15.68;7.20;;;2.80;71.00;;;;;;5137349;27;20019;-73
2022/02/13 07:07:03;;;;;;;16.13;7.95;;;2.80;71.00;;;;;;5118652;27;20019;-75
2022/02/13 07:09:28;;;;;;;15.95;7.40;;;2.80;70.80;;;;;;5137179;27;20058;-75
2022/02/13 07:11:54;;;;;;;16.63;8.02;;;2.80;70.80;;;;;;5137086;27;20043;-74
2022/02/13 07:14:19;;;;;;;19.50;8.18;;;2.80;70.70;;;;;;5136843;27;20050;-74
2022/02/13 07:16:45;;;;;;;16.15;7.32;;;2.80;70.50;;;;;;5118595;27;20047;-74
2022/02/13 07:19:10;;;;;;;17.45;8.07;;;2.80;70.50;;;;;;5136941;27;20019;-74
2022/02/13 07:21:36;;;;;;;18.58;7.78;;;2.80;70.80;;;;;;5136547;27;20031;-75
2022/02/13 07:24:02;;;;;;;13.95;7.60;;;2.80;70.90;;;;;;5136927;27;20030;-75
2022/02/13 07:26:27;;;;;;;12.48;7.35;;;2.90;71.10;;;;;;5137361;27;20102;-75
2022/02/13 07:28:59;;;;;;;15.80;7.38;;;3.00;70.80;;;;;;5136743;27;20033;-75
2022/02/13 07:31:25;;;;;;;15.65;8.43;;;3.10;70.60;;;;;;5136756;27;20027;-75
2022/02/13 07:33:50;;;;;;;16.77;8.40;;;3.10;70.20;;;;;;5136686;27;20022;-75
2022/02/13 07:36:16;;;;;;;15.07;8.25;;;3.20;70.20;;;;;;5118278;27;20390;-75
2022/02/13 07:38:41;;;;;;;16.42;8.02;;;3.20;69.80;;;;;;5136590;27;20022;-75
2022/02/13 07:41:07;;;;;;;15.75;8.32;;;3.20;69.40;;;;;;5136531;27;20429;-75
2022/02/13 07:43:36;;;;;;;16.55;8.38;;;3.30;69.60;;;;;;5136602;27;20038;-75
2022/02/13 07:46:01;;;;;;;18.83;8.55;;;3.40;69.40;;;;;;5136411;27;20029;-75
2022/02/13 07:48:27;;;;;;;17.15;7.95;;;3.40;69.20;;;;;;5136314;27;20015;-75
2022/02/13 07:50:53;;;;;;;20.05;8.30;;;3.50;69.00;;;;;;5136333;27;20038;-75
2022/02/13 07:53:18;;;;;;;19.30;8.57;;;3.60;68.80;;;;;;5117926;27;20023;-73
2022/02/13 07:55:44;;;;;;;14.98;8.48;;;3.60;68.50;;;;;;5136193;27;20079;-73
2022/02/13 07:58:10;;;;;;;20.95;9.10;;;3.70;68.60;;;;;;5136261;27;20145;-74
2022/02/13 08:00:36;;;;;;;16.35;9.07;;;3.70;68.40;;;;;;5136165;27;20019;-75
2022/02/13 08:03:02;;;;;;;16.95;9.05;;;3.90;68.30;;;;;;5136180;27;20019;-74
2022/02/13 08:05:27;;;;;;;16.38;9.18;;;3.90;68.00;;;;;;5136215;27;20019;-74
2022/02/13 08:07:53;;;;;;;18.50;9.07;;;4.00;67.70;;;;;;5136030;27;20513;-73
2022/02/13 08:10:18;;;;;;;19.80;9.27;;;4.10;67.40;;;;;;5117459;27;20038;-73
2022/02/13 08:12:45;;;;;;;18.60;9.18;;;4.20;66.80;;;;;;5135825;27;20098;-73
2022/02/13 08:15:12;;;;;;;17.55;8.30;;;4.30;66.70;;;;;;5135695;27;20130;-75
2022/02/13 08:17:37;;;;;;;16.85;8.95;;;4.40;66.30;;;;;;5135853;27;20019;-75
2022/02/13 08:20:07;;;;;;;17.65;9.60;;;4.50;66.20;;;;;;5135842;27;20504;-75
2022/02/13 08:22:34;;;;;;;16.95;8.90;;;4.60;65.90;;;;;;5135601;27;20019;-73
2022/02/13 08:24:59;;;;;;;21.25;8.85;;;4.70;65.60;;;;;;5135450;27;20477;-73
2022/02/13 08:27:25;;;;;;;13.23;8.35;;;4.80;65.10;;;;;;5135663;27;20027;-74
2022/02/13 08:29:51;;;;;;;17.75;8.93;;;4.90;65.00;;;;;;5135605;27;20482;-74
2022/02/13 08:32:17;;;;;;;17.05;8.75;;;5.00;64.50;;;;;;5135076;27;20023;-74
2022/02/13 08:34:43;;;;;;;16.52;9.32;;;5.20;63.90;;;;;;5135043;27;20386;-74
2022/02/13 08:37:08;;;;;;;22.60;10.68;;;5.30;63.50;;;;;;5135401;27;20015;-73
2022/02/13 08:39:34;;;;;;;18.25;9.73;;;5.40;63.10;;;;;;5135346;27;20027;-74
2022/02/13 08:42:00;;;;;;;17.73;8.63;;;5.60;63.00;;;;;;5116932;27;20016;-74
2022/02/13 08:44:26;;;;;;;16.65;8.55;;;5.70;62.50;;;;;;5135362;27;20094;-74
2022/02/13 08:46:51;;;;;;;15.43;8.55;;;5.80;62.00;;;;;;5135141;27;20046;-74
2022/02/13 08:49:17;;;;;;;12.77;7.90;;;6.00;61.40;;;;;;5135102;27;20382;-75
2022/02/13 08:51:44;;;;;;;15.75;7.88;;;6.20;61.20;;;;;;5116658;27;20105;-74
2022/02/13 08:54:09;;;;;;;15.38;7.60;;;6.30;60.70;;;;;;5135056;27;20378;-74
2022/02/13 08:56:35;;;;;;;13.10;7.88;;;6.50;60.40;;;;;;5135045;27;20072;-75
2022/02/13 08:59:01;;;;;;;13.32;7.90;;;6.60;60.60;;;;;;5134901;27;20023;-74
2022/02/13 09:01:27;;;;;;;18.90;7.43;;;6.80;60.20;;;;;;5134895;27;20023;-74
2022/02/13 09:03:52;;;;;;;10.82;7.15;;;7.00;59.20;;;;;;5134741;27;20023;-76
2022/02/13 09:06:18;;;;;;;10.98;6.28;;;7.20;58.30;;;;;;5134934;27;20106;-85
2022/02/13 09:08:43;;;;;;;12.23;6.68;;;7.40;57.30;;;;;;5135452;27;20494;-76
2022/02/13 09:11:09;;;;;;;9.57;4.35;;;7.70;63.50;;;;;;5134768;27;20033;-76
2022/02/13 09:13:34;;;;;;;13.50;6.32;;;8.10;65.90;;;;;;5134683;27;20023;-77
2022/02/13 09:16:00;;;;;;;9.63;6.13;;;8.60;61.70;;;;;;5134550;27;20439;-77
2022/02/13 09:18:26;;;;;;;13.07;6.72;;;9.00;58.60;;;;;;5134686;27;20101;-77
2022/02/13 09:20:52;;;;;;;10.52;4.88;;;9.30;56.00;;;;;;5116396;27;20070;-76
2022/02/13 09:23:18;;;;;;;11.73;5.45;;;9.50;54.60;;;;;;5116159;27;20046;-77
2022/02/13 09:25:45;;;;;;;16.67;5.85;;;9.70;50.00;;;;;;5134454;27;20102;-77
2022/02/13 09:28:12;;;;;;;13.05;6.68;;;9.80;47.70;;;;;;5134464;27;20023;-77
2022/02/13 09:30:37;;;;;;;8.90;5.47;;;9.90;47.00;;;;;;5134298;27;20030;-77
2022/02/13 09:33:03;;;;;;;12.32;5.82;;;9.80;47.70;;;;;;5134500;27;20015;-78
2022/02/13 09:35:29;;;;;;;15.15;6.95;;;9.80;48.00;;;;;;5134357;27;20033;-77
2022/02/13 09:37:56;;;;;;;14.68;7.35;;;9.80;46.40;;;;;;5134317;27;20098;-77
2022/02/13 09:40:22;;;;;;;16.75;8.38;;;9.70;46.50;;;;;;5134478;27;20375;-77
2022/02/13 09:42:48;;;;;;;12.70;8.02;;;9.70;47.50;;;;;;5134143;27;20053;-78
2022/02/13 09:45:14;;;;;;;13.40;6.80;;;9.70;46.10;;;;;;5134023;27;20479;-77
2022/02/13 09:47:40;;;;;;;13.25;6.03;;;9.50;46.90;;;;;;5134198;27;20404;-76
2022/02/13 09:50:07;;;;;;;16.23;5.57;;;9.30;47.10;;;;;;5134122;27;20386;-77
2022/02/13 09:52:33;;;;;;;13.77;6.07;;;9.50;47.50;;;;;;5115898;28;20019;-78
2022/02/13 09:54:58;;;;;;;12.70;6.40;;;9.50;46.90;;;;;;5135207;27;20035;-78
2022/02/13 10:00:09;;;;;;;15.80;7.22;;;9.60;47.30;;;;;;5133800;27;20120;-74
2022/02/13 10:02:43;;;;;;;14.18;5.43;;;9.60;46.20;;;;;;5133958;27;20034;-76
2022/02/13 10:05:11;;;;;;;11.20;6.22;;;9.60;46.10;;;;;;5131853;27;20019;-77
2022/02/13 10:07:38;;;;;;;14.07;5.80;;;9.60;46.10;;;;;;5133928;27;20027;-74
2022/02/13 10:10:06;;;;;;;12.55;6.15;;;9.50;46.40;;;;;;5133756;27;20558;-76
2022/02/13 10:12:42;;;;;;;15.98;5.90;;;9.60;46.20;;;;;;5133600;27;20106;-75
2022/02/13 10:15:30;;;;;;;10.45;5.65;;;9.50;47.40;;;;;;5133261;27;20548;-74
2022/02/13 10:18:04;;;;;;;10.82;5.43;;;9.60;45.80;;;;;;5133689;27;20031;-75
2022/02/13 10:20:33;;;;;;;12.40;6.03;;;9.60;45.80;;;;;;5133892;27;20148;-75
2022/02/13 10:23:13;;;;;;;12.50;5.78;;;9.70;46.20;;;;;;5133631;27;20387;-75
2022/02/13 10:25:41;;;;;;;15.10;5.35;;;9.70;45.50;;;;;;5133510;27;20157;-75
2022/02/13 10:28:12;;;;;;;13.65;5.15;;;9.70;45.50;;;;;;5133490;27;20375;-74
2022/02/13 10:30:41;;;;;;;14.77;5.72;;;9.80;45.70;;;;;;5133601;27;20034;-74
2022/02/13 10:33:26;;;;;;;13.15;5.10;;;9.80;45.30;;;;;;5133856;27;20019;-75
2022/02/13 10:36:02;;;;;;;11.30;5.18;;;9.90;46.00;;;;;;5133585;27;20106;-74
2022/02/13 10:38:30;;;;;;;12.98;5.55;;;10.20;45.00;;;;;;5133434;27;20023;-75
2022/02/13 10:41:18;;;;;;;14.80;5.57;;;10.40;43.70;;;;;;5115115;27;20031;-75
2022/02/13 10:43:58;;;;;;;13.55;5.72;;;10.40;43.80;;;;;;5133366;27;20027;-76
2022/02/13 10:46:28;;;;;;;11.07;5.15;;;10.50;42.90;;;;;;5115251;28;20118;-73
2022/02/13 10:48:53;;;;;;;10.38;5.22;;;10.50;43.00;;;;;;5133304;27;20031;-75
2022/02/13 10:51:21;;;;;;;9.00;4.95;;;10.70;42.50;;;;;;5133350;28;20022;-75
2022/02/13 10:53:47;;;;;;;13.75;5.40;;;10.90;41.70;;;;;;5133251;27;20150;-75
2022/02/13 10:56:13;;;;;;;14.15;5.38;;;11.00;41.90;;;;;;5134377;27;20016;-75
2022/02/13 10:58:39;;;;;;;11.95;5.68;;;11.20;41.20;;;;;;5137261;27;20034;-75
2022/02/13 11:01:06;;;;;;;8.90;4.85;;;11.20;40.80;;;;;;5137186;27;20094;-75
2022/02/13 11:03:33;;;;;;;9.35;4.70;;;11.40;40.10;;;;;;5137313;27;20019;-75
2022/02/13 11:06:02;;;;;;;10.85;4.97;;;11.50;40.60;;;;;;5137090;27;20489;-75
2022/02/13 11:08:30;;;;;;;13.77;5.30;;;11.80;39.40;;;;;;5138243;27;20109;-75
2022/02/13 11:10:57;;;;;;;11.43;5.03;;;11.40;38.40;;;;;;5118744;27;20034;-75
2022/02/13 11:13:25;;;;;;;12.18;5.40;;;11.10;38.30;;;;;;5138612;27;20076;-76
2022/02/13 11:15:51;;;;;;;16.45;4.40;;;10.90;38.70;;;;;;5136896;27;20047;-76
2022/02/13 11:18:22;;;;;;;11.13;4.85;;;10.80;39.20;;;;;;5137053;27;20094;-75
2022/02/13 11:20:49;;;;;;;11.93;4.38;;;11.10;39.10;;;;;;5137037;27;20056;-76
2022/02/13 11:23:19;;;;;;;8.20;3.97;;;11.40;38.80;;;;;;5118528;27;20110;-74
2022/02/13 11:25:53;;;;;;;8.35;4.05;;;11.70;37.90;;;;;;5136717;27;20023;-76
2022/02/13 11:28:24;;;;;;;10.80;4.15;;;11.80;37.30;;;;;;5136714;27;20072;-78
2022/02/13 11:30:50;;;;;;;8.05;4.47;;;12.00;36.50;;;;;;5136778;27;20502;-76
2022/02/13 11:33:28;;;;;;;11.85;4.75;;;12.00;36.10;;;;;;5136571;27;20093;-77
2022/02/13 11:36:04;;;;;;;10.95;4.15;;;11.80;36.30;;;;;;5136449;27;20039;-74
2022/02/13 11:38:48;;;;;;;10.45;4.03;;;11.70;35.80;;;;;;5136651;27;20019;-75
2022/02/13 11:41:19;;;;;;;8.77;3.92;;;11.90;35.50;;;;;;5136506;27;20061;-74
2022/02/13 11:43:45;;;;;;;6.63;3.88;;;11.80;34.80;;;;;;5136448;27;20048;-74
2022/02/13 11:46:25;;;;;;;10.63;4.00;;;11.80;34.50;;;;;;5136435;27;20442;-74
2022/02/13 11:49:08;;;;;;;11.80;3.88;;;12.00;34.10;;;;;;5136340;27;20039;-75
2022/02/13 11:51:45;;;;;;;11.18;4.00;;;12.20;33.20;;;;;;5136433;27;20019;-72
2022/02/13 11:54:44;;;;;;;10.85;3.83;;;12.00;33.40;;;;;;5136309;27;20025;-76
2022/02/13 11:57:16;;;;;;;7.32;3.65;;;11.70;33.90;;;;;;5136264;27;20466;-74
2022/02/13 12:00:03;;;;;;;12.48;3.83;;;11.80;34.00;;;;;;5136234;27;20027;-75
2022/02/13 12:02:31;;;;;;;11.35;3.92;;;12.10;33.90;;;;;;5136124;27;20019;-77
2022/02/13 12:05:06;;;;;;;10.20;3.35;;;12.10;33.30;;;;;;5135642;27;20515;-74
2022/02/13 12:07:37;;;;;;;12.93;4.20;;;11.80;32.70;;;;;;5116265;28;20386;-73
2022/02/13 12:10:10;;;;;;;9.88;4.00;;;11.80;33.60;;;;;;5135912;27;20039;-73
2022/02/13 12:12:36;;;;;;;6.15;3.25;;;12.20;33.10;;;;;;5136118;27;20019;-74
2022/02/13 12:15:02;;;;;;;8.68;3.72;;;12.60;32.70;;;;;;5135674;27;20147;-74
2022/02/13 12:17:29;;;;;;;9.10;4.00;;;12.10;32.40;;;;;;5135989;27;20079;-72
2022/02/13 12:20:05;;;;;;;10.35;3.65;;;12.20;32.50;;;;;;5135763;27;20046;-73
2022/02/13 12:22:31;;;;;;;9.48;3.92;;;12.40;32.70;;;;;;5135791;27;20027;-72
2022/02/13 12:25:01;;;;;;;12.80;3.42;;;12.30;31.70;;;;;;5135566;27;20027;-74
2022/02/13 12:27:28;;;;;;;8.73;3.50;;;12.30;32.40;;;;;;5135517;27;20015;-73
2022/02/13 12:29:55;;;;;;;7.47;3.80;;;12.40;32.60;;;;;;5135345;27;20383;-72
2022/02/13 12:32:31;;;;;;;8.57;3.67;;;12.60;32.00;;;;;;5135371;27;20073;-73
2022/02/13 12:35:08;;;;;;;9.98;3.25;;;13.00;31.20;;;;;;5116929;27;20479;-73
2022/02/13 12:37:38;;;;;;;8.93;3.75;;;13.40;30.90;;;;;;5135378;27;20106;-73
2022/02/13 12:40:15;;;;;;;5.80;3.08;;;13.60;30.40;;;;;;5135394;27;20048;-72
2022/02/13 12:42:44;;;;;;;8.38;3.83;;;14.00;29.60;;;;;;5135078;27;20512;-73
2022/02/13 12:45:13;;;;;;;7.60;3.38;;;14.40;29.20;;;;;;5135163;27;20494;-73
2022/02/13 12:47:41;;;;;;;9.48;3.92;;;14.20;29.40;;;;;;5135166;27;20019;-73
2022/02/13 12:50:10;;;;;;;5.88;3.22;;;14.40;28.60;;;;;;5135023;27;20042;-73